Buckland Airport
PABL : now visible

Airfield :











YOU CAN JOIN US ON...

 
LOGIN :

Register | Disclaimer

   EN    FR    IT 

 









Legend :    VFR   Marginal VFR   IFR   Intensive IFR   Very Intensive IFR
Visi :
Ceiling :
>= 8 km
>= 3000ft
5 to 8 km
1000 to 3000 ft
1500m to 5 km
500 to 1000 ft
800 to 1500m
200 to 500 ft
< 800m
< 200 ft
Symbols :   Thunderstorms  Fog  Heavy snow  Heavy precipitations  Wind > 20 kt






- Airport Elevation : 31 ft
- IATA code : BVK


PABL - Buckland

CURRENT METAR :
  • 010756Z AUTO 22006KT 10SM BKN048 OVC055 11/07 A2980 RMK AO2 SLP092 T01110067 401560106

EXPIRED METARs :
  • 010656Z AUTO 19007KT 10SM FEW025 12/07 A2977 RMK AO2 SLP082 P0001 T01170072
  • 010556Z AUTO 20010G15KT 10SM CLR 13/07 A2975 RMK AO2 SLP076 60000 T01330072 10150 20128 53028

TAF N/A
PAZA FIR / North America



MET'MAP, your aeronautical weather chart ! - Copyright ORBIFLY December 2007 - Disclaimer

ORBIFLY MET'MAP TEAM :

Programming & Development : Alexandra Zaïnal
Concept & original design : Baudouin d'Aumeries
Assistance for programming : Marc-Olivier Méhu
Technical & hardware support : Manuel Goepfert

Contact : metmap@orbifly.com




SOURCES & CREDITS :

   NOAA       Earth
Advisory